Time;durP1;ratioP1;P1;durP2;ratioP2;P2;SDS_P1;SDS_P2;PMS_P1;PMS_P2;Temp;Humidity;BMP_temperature;BMP_pressure;BME280_temperature;BME280_humidity;BME280_pressure;Samples;Min_cycle;Max_cycle;Signal;HPM_P1;HPM_P2
2023/03/05 00:00:17;;;;;;;;;2.00;2.00;;;;;5.70;70.41;102258.59;5059592;28;11477;-67
2023/03/05 00:02:43;;;;;;;;;0.75;0.75;;;;;5.70;69.91;102259.44;5052028;28;11485;-67
2023/03/05 00:05:10;;;;;;;;;1.00;1.00;;;;;5.71;70.19;102252.28;5053075;28;12246;-67
2023/03/05 00:07:36;;;;;;;;;0.25;0.25;;;;;5.70;69.59;102250.59;5053362;28;11465;-67
2023/03/05 00:10:04;;;;;;;;;1.00;1.00;;;;;5.68;69.66;102245.38;5053508;28;11433;-67
2023/03/05 00:12:31;;;;;;;;;0.50;0.50;;;;;5.67;69.65;102243.69;5053482;28;11515;-66
2023/03/05 00:14:57;;;;;;;;;1.50;0.75;;;;;5.66;69.76;102244.66;5054530;28;11448;-66
2023/03/05 00:17:23;;;;;;;;;0.00;0.00;;;;;5.64;69.76;102237.75;5049509;28;11535;-67
2023/03/05 00:19:50;;;;;;;;;1.25;1.00;;;;;5.64;69.42;102240.44;5051731;28;11428;-67
2023/03/05 00:22:16;;;;;;;;;2.00;1.00;;;;;5.62;69.87;102240.53;5052403;28;11433;-67
2023/03/05 00:24:43;;;;;;;;;0.00;0.00;;;;;5.61;70.11;102238.00;5052369;28;11465;-67
2023/03/05 00:27:09;;;;;;;;;0.00;0.00;;;;;5.58;69.67;102235.59;5053133;28;11444;-66
2023/03/05 00:29:36;;;;;;;;;4.25;2.00;;;;;5.52;69.94;102231.59;5054547;28;11391;-67
2023/03/05 00:32:02;;;;;;;;;4.00;2.00;;;;;5.52;70.17;102241.44;5049507;28;12157;-66
2023/03/05 00:34:30;;;;;;;;;0.50;0.50;;;;;5.50;69.82;102230.03;5051160;28;11481;-66
2023/03/05 00:36:57;;;;;;;;;1.00;1.00;;;;;5.49;69.89;102237.19;5033737;28;11453;-66
2023/03/05 00:39:23;;;;;;;;;0.00;0.00;;;;;5.48;69.83;102232.84;5050828;28;11448;-66
2023/03/05 00:41:50;;;;;;;;;1.00;1.00;;;;;5.48;70.06;102226.66;5051309;28;11436;-67
2023/03/05 00:44:17;;;;;;;;;3.00;1.50;;;;;5.47;70.13;102231.16;5063170;28;11453;-66
2023/03/05 00:46:43;;;;;;;;;1.00;1.00;;;;;5.45;69.92;102230.41;5049645;28;11431;-67
2023/03/05 00:49:10;;;;;;;;;0.00;0.00;;;;;5.42;70.16;102223.50;5050816;28;11464;-66
2023/03/05 00:51:36;;;;;;;;;1.00;1.00;;;;;5.39;70.24;102231.78;5052339;28;11546;-67
2023/03/05 00:54:04;;;;;;;;;0.00;0.00;;;;;5.36;69.68;102223.16;5052282;28;11448;-66
2023/03/05 00:56:31;;;;;;;;;0.25;0.25;;;;;5.34;70.17;102222.44;5047277;28;11431;-67
2023/03/05 00:58:57;;;;;;;;;3.00;1.00;;;;;5.30;70.38;102210.31;5059836;28;11521;-66
2023/03/05 01:01:25;;;;;;;;;2.50;1.25;;;;;5.27;70.03;102210.59;5054270;28;11442;-67
2023/03/05 01:03:52;;;;;;;;;0.75;0.75;;;;;5.23;70.12;102204.66;5042354;28;11450;-66
2023/03/05 01:06:18;;;;;;;;;0.50;0.25;;;;;5.23;70.36;102206.47;5053380;28;11447;-67
2023/03/05 01:08:45;;;;;;;;;1.00;1.00;;;;;5.21;70.20;102198.56;5051925;28;11431;-67
2023/03/05 01:11:12;;;;;;;;;3.00;0.75;;;;;5.19;70.21;102208.53;5052137;28;11449;-66
2023/03/05 01:13:39;;;;;;;;;3.25;1.00;;;;;5.19;70.12;102201.38;5050736;28;11420;-67
2023/03/05 01:16:06;;;;;;;;;1.00;1.00;;;;;5.18;70.55;102191.66;5050260;28;11452;-66
2023/03/05 01:18:33;;;;;;;;;0.75;0.75;;;;;5.17;70.58;102187.28;5054354;28;12161;-68
2023/03/05 01:21:00;;;;;;;;;1.25;1.00;;;;;5.18;70.34;102198.81;5050748;28;11446;-67
2023/03/05 01:23:26;;;;;;;;;1.00;1.00;;;;;5.16;70.26;102182.94;5050576;28;11416;-66
2023/03/05 01:25:58;;;;;;;;;0.00;0.00;;;;;5.15;70.46;102183.06;5054908;28;11416;-68
2023/03/05 01:28:26;;;;;;;;;1.00;1.00;;;;;5.17;70.84;102189.13;5062565;28;11412;-67
2023/03/05 01:30:53;;;;;;;;;1.00;0.00;;;;;5.17;70.52;102194.47;5049207;28;11418;-67
2023/03/05 01:33:19;;;;;;;;;0.00;0.00;;;;;5.19;70.77;102192.53;5051567;28;11508;-67
2023/03/05 01:35:47;;;;;;;;;1.00;1.00;;;;;5.17;70.41;102189.13;5053731;28;11429;-67
2023/03/05 01:38:14;;;;;;;;;2.00;1.00;;;;;5.07;70.57;102189.03;5058782;28;11518;-67
2023/03/05 01:40:42;;;;;;;;;0.00;0.00;;;;;5.08;71.09;102177.38;5050830;28;11445;-66
2023/03/05 01:43:11;;;;;;;;;0.00;0.00;;;;;5.10;71.83;102174.56;5050073;28;11433;-65
2023/03/05 01:46:16;;;;;;;;;0.00;0.00;;;;;5.12;71.87;102162.81;5049260;28;11555;-66
2023/03/05 01:48:48;;;;;;;;;0.00;0.00;;;;;5.15;72.17;102167.06;5051402;28;11440;-66
2023/03/05 01:51:18;;;;;;;;;0.00;0.00;;;;;5.17;72.09;102154.41;5052616;28;11449;-67
2023/03/05 01:53:45;;;;;;;;;0.00;0.00;;;;;5.19;72.27;102150.66;5052554;28;12195;-67
2023/03/05 01:56:12;;;;;;;;;0.00;0.00;;;;;5.22;72.92;102144.19;5047284;28;11437;-66
2023/03/05 01:58:39;;;;;;;;;0.00;0.00;;;;;5.23;72.45;102140.56;5051152;28;11594;-67
2023/03/05 02:01:05;;;;;;;;;0.00;0.00;;;;;5.22;72.94;102141.53;5050565;28;11445;-66
2023/03/05 02:03:33;;;;;;;;;0.00;0.00;;;;;5.23;72.96;102137.06;5050578;28;11412;-67
2023/03/05 02:05:59;;;;;;;;;0.75;0.75;;;;;5.24;73.29;102130.75;5050753;28;11456;-66
2023/03/05 02:08:26;;;;;;;;;1.00;0.50;;;;;5.25;73.29;102130.59;5047273;28;11448;-68
2023/03/05 02:10:59;;;;;;;;;0.00;0.00;;;;;5.26;73.52;102118.94;5051138;28;11536;-67
2023/03/05 02:13:30;;;;;;;;;0.25;0.00;;;;;5.28;73.31;102122.34;5050261;28;11558;-66
2023/03/05 02:15:58;;;;;;;;;0.00;0.00;;;;;5.28;73.09;102116.16;5037601;28;11462;-68
2023/03/05 02:18:26;;;;;;;;;0.00;0.00;;;;;5.27;73.07;102120.66;5049639;28;11418;-67
2023/03/05 02:20:55;;;;;;;;;0.00;0.00;;;;;5.26;73.01;102118.09;5049313;28;11475;-67
2023/03/05 02:23:28;;;;;;;;;0.00;0.00;;;;;5.22;73.02;102098.81;5046563;28;11462;-67
2023/03/05 02:25:55;;;;;;;;;0.25;0.25;;;;;5.18;73.63;102092.03;5049394;28;12160;-68
2023/03/05 02:28:27;;;;;;;;;0.00;0.00;;;;;5.15;73.42;102095.84;5049326;28;11440;-67
2023/03/05 02:30:53;;;;;;;;;0.50;0.25;;;;;5.12;73.46;102089.91;5050773;28;11396;-68
2023/03/05 02:33:20;;;;;;;;;0.00;0.00;;;;;5.08;73.82;102091.13;5050470;28;11435;-67
2023/03/05 02:35:47;;;;;;;;;0.50;0.25;;;;;5.07;73.83;102094.78;5050724;28;11555;-68
2023/03/05 02:38:17;;;;;;;;;0.00;0.00;;;;;5.04;74.03;102092.34;5050305;28;11448;-67
2023/03/05 02:40:43;;;;;;;;;1.00;0.00;;;;;5.02;73.97;102087.13;5057271;28;11404;-67
2023/03/05 02:43:11;;;;;;;;;3.25;0.00;;;;;5.04;74.54;102092.34;5049512;28;11405;-67
2023/03/05 02:45:38;;;;;;;;;5.00;2.00;;;;;5.04;74.28;102084.34;5049183;28;11448;-66
2023/03/05 02:48:05;;;;;;;;;0.00;0.00;;;;;5.04;74.13;102082.53;5048110;28;11440;-67
2023/03/05 02:50:33;;;;;;;;;2.00;1.00;;;;;5.06;74.39;102075.22;5064396;28;12177;-66
2023/03/05 02:53:00;;;;;;;;;0.00;0.00;;;;;5.07;75.10;102060.94;5049302;28;11469;-68
2023/03/05 02:55:27;;;;;;;;;0.00;0.00;;;;;5.10;74.92;102070.47;5048840;28;11533;-66
2023/03/05 02:57:53;;;;;;;;;1.00;0.00;;;;;5.12;74.98;102060.53;5038763;28;11601;-67
2023/03/05 03:00:21;;;;;;;;;1.25;1.25;;;;;5.14;74.89;102061.25;5048199;28;11443;-66
2023/03/05 03:02:48;;;;;;;;;1.50;0.25;;;;;5.13;75.41;102049.72;5063838;28;11431;-67
2023/03/05 03:05:15;;;;;;;;;0.00;0.00;;;;;5.13;75.21;102049.72;5048381;28;11426;-66
2023/03/05 03:07:41;;;;;;;;;1.25;1.25;;;;;5.14;75.54;102045.22;5051983;28;12257;-66
2023/03/05 03:10:09;;;;;;;;;0.00;0.00;;;;;5.12;75.47;102040.03;5049548;28;11514;-66
2023/03/05 03:12:37;;;;;;;;;1.00;1.00;;;;;5.14;75.57;102047.91;5050077;28;11449;-66
2023/03/05 03:15:05;;;;;;;;;0.00;0.00;;;;;5.14;75.27;102039.88;5042455;28;11546;-66
2023/03/05 03:17:34;;;;;;;;;1.00;0.50;;;;;5.16;75.50;102044.13;5048388;28;12183;-66
2023/03/05 03:20:03;;;;;;;;;1.50;1.00;;;;;5.17;75.53;102034.31;5050059;28;11456;-67
2023/03/05 03:22:30;;;;;;;;;0.75;0.00;;;;;5.17;75.90;102029.81;5050204;28;11436;-66
2023/03/05 03:24:56;;;;;;;;;0.00;0.00;;;;;5.17;75.90;102032.47;5048714;28;11441;-66
2023/03/05 03:27:23;;;;;;;;;0.50;0.50;;;;;5.16;75.70;102029.94;5050184;28;11416;-67
2023/03/05 03:29:49;;;;;;;;;1.00;1.00;;;;;5.14;75.75;102024.72;5049878;28;12132;-66
2023/03/05 03:32:16;;;;;;;;;0.00;0.00;;;;;5.10;75.60;102017.09;5049890;28;11497;-66
2023/03/05 03:34:43;;;;;;;;;1.00;0.00;;;;;5.11;75.56;102019.66;5048070;28;12137;-65
2023/03/05 03:37:09;;;;;;;;;1.00;1.00;;;;;5.12;75.85;102017.84;5048436;28;11436;-65
2023/03/05 03:39:36;;;;;;;;;3.25;1.00;;;;;5.12;76.02;102013.34;5049941;28;11402;-66
2023/03/05 03:42:03;;;;;;;;;1.00;1.00;;;;;5.13;75.89;102011.50;5048973;28;11421;-66
2023/03/05 03:44:29;;;;;;;;;1.00;1.00;;;;;5.13;75.64;102003.50;5045883;28;11449;-66
2023/03/05 03:46:56;;;;;;;;;1.00;1.00;;;;;5.12;75.41;102001.81;5048864;28;11476;-65
2023/03/05 03:49:24;;;;;;;;;3.00;2.00;;;;;5.10;75.85;101999.25;5048632;28;11454;-65
2023/03/05 03:51:56;;;;;;;;;4.00;2.25;;;;;5.08;75.77;101997.72;5048280;28;11482;-67
2023/03/05 03:54:23;;;;;;;;;2.50;1.75;;;;;5.08;75.63;102001.22;5047935;28;11453;-66
2023/03/05 03:56:57;;;;;;;;;1.00;1.00;;;;;5.07;76.06;101994.22;5048700;28;11545;-66
2023/03/05 03:59:24;;;;;;;;;1.50;1.50;;;;;5.05;76.01;101988.13;5048347;28;12256;-66
2023/03/05 04:01:51;;;;;;;;;1.00;1.00;;;;;5.02;75.52;101983.06;5047245;28;11563;-67
2023/03/05 04:04:18;;;;;;;;;1.00;1.00;;;;;5.02;75.61;101985.72;5042231;28;11520;-66
2023/03/05 04:06:45;;;;;;;;;2.50;2.50;;;;;5.02;75.87;101984.88;5040177;28;11430;-66
2023/03/05 04:09:12;;;;;;;;;4.00;1.50;;;;;5.03;76.22;101981.25;5047273;28;11434;-66
2023/03/05 04:11:39;;;;;;;;;1.00;1.00;;;;;5.04;75.94;101982.94;5053125;28;11568;-66
2023/03/05 04:14:05;;;;;;;;;0.00;0.00;;;;;5.04;75.93;101985.63;5031189;28;11432;-66
2023/03/05 04:16:32;;;;;;;;;1.00;1.00;;;;;5.03;76.04;101973.25;5044863;28;11458;-66
2023/03/05 04:18:58;;;;;;;;;0.75;0.75;;;;;5.03;75.79;101976.75;5048059;28;11441;-63
2023/03/05 04:21:25;;;;;;;;;1.00;0.50;;;;;5.03;76.02;101971.44;5047777;28;11575;-65
2023/03/05 04:23:51;;;;;;;;;3.50;1.50;;;;;5.03;75.89;101975.94;5049207;28;12139;-64
2023/03/05 04:26:18;;;;;;;;;1.00;1.00;;;;;5.02;76.17;101971.53;5048732;28;11491;-65
2023/03/05 04:28:45;;;;;;;;;1.00;1.00;;;;;5.00;76.36;101961.00;5053238;28;11420;-65
2023/03/05 04:31:12;;;;;;;;;1.00;1.00;;;;;4.99;76.35;101962.00;5056470;28;11423;-65
2023/03/05 04:33:38;;;;;;;;;1.25;1.25;;;;;4.97;76.47;101955.94;5052590;28;11530;-65
2023/03/05 04:36:05;;;;;;;;;1.00;1.00;;;;;4.96;76.10;101955.09;5051976;28;11442;-65
2023/03/05 04:38:32;;;;;;;;;2.00;1.00;;;;;4.93;76.43;101949.16;5052206;28;11444;-65
2023/03/05 04:40:58;;;;;;;;;5.00;1.00;;;;;4.93;76.32;101947.34;5050325;28;11526;-65
2023/03/05 04:43:25;;;;;;;;;4.00;2.00;;;;;4.92;76.23;101950.16;5051284;28;11419;-64
2023/03/05 04:45:51;;;;;;;;;0.00;0.00;;;;;4.93;76.64;101949.16;5056406;28;11451;-66
2023/03/05 04:48:18;;;;;;;;;1.75;1.50;;;;;4.93;76.38;101951.81;5051996;28;11504;-65
2023/03/05 04:50:45;;;;;;;;;1.50;1.00;;;;;4.92;76.19;101960.81;5052621;28;11421;-65
2023/03/05 04:53:11;;;;;;;;;1.00;1.00;;;;;4.91;76.18;101953.78;5051440;28;12261;-65
2023/03/05 04:55:38;;;;;;;;;1.00;1.00;;;;;4.89;76.70;101951.22;5051826;28;11506;-66
2023/03/05 04:58:04;;;;;;;;;0.00;0.00;;;;;4.87;76.51;101953.19;5055601;28;11441;-65
2023/03/05 05:00:31;;;;;;;;;1.00;1.00;;;;;4.89;76.54;101942.38;5051302;28;11462;-65
2023/03/05 05:02:57;;;;;;;;;1.25;0.50;;;;;4.90;77.05;101939.63;5055186;28;11559;-66
2023/03/05 05:05:26;;;;;;;;;1.00;1.00;;;;;4.93;76.84;101938.47;5052548;28;11468;-66
2023/03/05 05:07:55;;;;;;;;;0.00;0.00;;;;;4.97;76.92;101931.91;5050775;28;11460;-66
2023/03/05 05:10:22;;;;;;;;;0.50;0.50;;;;;4.97;76.00;101926.56;5052607;28;11441;-65
2023/03/05 05:12:48;;;;;;;;;1.00;1.00;;;;;4.97;76.43;101924.75;5052568;28;11432;-67
2023/03/05 05:15:15;;;;;;;;;3.50;1.00;;;;;4.96;76.35;101920.41;5051853;28;11423;-67
2023/03/05 05:17:41;;;;;;;;;1.00;1.00;;;;;4.95;76.74;101926.72;5051583;28;11424;-66
2023/03/05 05:20:11;;;;;;;;;0.00;0.00;;;;;4.94;76.62;101917.03;5050771;28;11484;-67
2023/03/05 05:22:38;;;;;;;;;0.00;0.00;;;;;4.94;76.77;101916.16;5056370;28;11444;-66
2023/03/05 05:25:04;;;;;;;;;1.00;0.00;;;;;4.94;76.57;101921.50;5051753;28;11446;-65
2023/03/05 05:27:31;;;;;;;;;1.00;1.00;;;;;4.94;76.80;101919.69;5051972;28;11430;-65
2023/03/05 05:29:57;;;;;;;;;0.50;0.00;;;;;4.94;76.74;101921.50;5034092;28;11426;-65
2023/03/05 05:32:24;;;;;;;;;0.00;0.00;;;;;4.91;76.44;101919.94;5030713;28;11457;-66
2023/03/05 05:34:56;;;;;;;;;1.00;1.00;;;;;4.91;76.34;101919.09;5045362;28;11553;-67
2023/03/05 05:37:24;;;;;;;;;2.00;1.00;;;;;4.88;76.72;101914.88;5051810;28;11419;-65
2023/03/05 05:39:51;;;;;;;;;0.25;0.00;;;;;4.85;76.44;101907.13;5051723;28;11437;-66
2023/03/05 05:42:19;;;;;;;;;1.50;0.75;;;;;4.85;76.90;101906.28;5050415;28;11510;-65
2023/03/05 05:44:46;;;;;;;;;0.25;0.25;;;;;4.81;76.83;101889.69;5051291;28;11467;-66
2023/03/05 05:47:16;;;;;;;;;1.50;1.50;;;;;4.81;76.46;101891.50;5050381;28;12157;-66
2023/03/05 05:49:43;;;;;;;;;0.75;0.75;;;;;4.79;76.75;101890.81;5053970;28;11408;-65
2023/03/05 05:52:09;;;;;;;;;1.00;0.00;;;;;4.79;77.01;101890.81;5051788;28;11475;-66
2023/03/05 05:54:37;;;;;;;;;1.00;1.00;;;;;4.76;76.81;101894.56;5049258;28;11474;-66
2023/03/05 05:57:03;;;;;;;;;1.00;1.00;;;;;4.75;76.53;101892.06;5068614;28;11428;-65
2023/03/05 05:59:30;;;;;;;;;0.75;0.75;;;;;4.74;76.75;101891.22;5057904;28;11555;-66
2023/03/05 06:01:56;;;;;;;;;1.00;1.00;;;;;4.71;76.92;101883.47;5051536;28;11514;-66
2023/03/05 06:04:23;;;;;;;;;2.00;0.00;;;;;4.69;76.87;101888.91;5053976;28;11431;-65
2023/03/05 06:06:49;;;;;;;;;0.75;0.75;;;;;4.69;76.84;101880.06;5051890;28;11474;-64
2023/03/05 06:09:16;;;;;;;;;0.00;0.00;;;;;4.67;77.20;101879.38;5052828;28;12308;-65
2023/03/05 06:11:42;;;;;;;;;0.00;0.00;;;;;4.66;77.03;101881.19;5054320;28;11444;-65
2023/03/05 06:14:11;;;;;;;;;3.50;2.50;;;;;4.65;77.02;101875.97;5054561;28;11414;-66
2023/03/05 06:16:38;;;;;;;;;1.00;1.00;;;;;4.64;77.26;101876.94;5053623;28;11533;-65
2023/03/05 06:19:05;;;;;;;;;1.00;1.00;;;;;4.64;76.88;101876.94;5054475;28;12100;-65
2023/03/05 06:21:32;;;;;;;;;2.50;2.00;;;;;4.64;77.25;101876.94;5054484;28;11445;-65
2023/03/05 06:23:59;;;;;;;;;0.00;0.00;;;;;4.65;77.20;101879.47;5044257;28;11508;-67
2023/03/05 06:26:26;;;;;;;;;0.00;0.00;;;;;4.66;76.90;101891.00;5031318;28;11441;-64
2023/03/05 06:28:53;;;;;;;;;0.25;0.25;;;;;4.66;76.83;101896.34;5038022;28;11514;-65
2023/03/05 06:31:25;;;;;;;;;0.00;0.00;;;;;4.57;77.15;101886.44;5046877;28;11568;-65
2023/03/05 06:33:55;;;;;;;;;0.50;0.50;;;;;4.53;77.43;101888.50;5042246;28;12200;-65
2023/03/05 06:36:24;;;;;;;;;1.00;0.50;;;;;4.50;77.71;101887.91;5050760;28;11451;-65
2023/03/05 06:38:51;;;;;;;;;0.25;0.25;;;;;4.51;77.37;101893.13;5049112;28;11478;-65
2023/03/05 06:41:29;;;;;;;;;0.00;0.00;;;;;4.52;77.38;101894.81;5050945;28;11561;-66
2023/03/05 06:43:58;;;;;;;;;0.00;0.00;;;;;4.55;77.42;101894.56;5049676;28;11453;-66
2023/03/05 06:46:26;;;;;;;;;0.50;0.50;;;;;4.59;77.86;101890.69;5047700;28;11433;-65
2023/03/05 06:48:59;;;;;;;;;0.75;0.75;;;;;4.65;77.37;101892.81;5048032;28;11480;-66
2023/03/05 06:51:27;;;;;;;;;1.00;1.00;;;;;4.66;77.38;101881.19;5046072;28;11447;-65
2023/03/05 06:53:55;;;;;;;;;0.50;0.50;;;;;4.68;77.14;101876.56;5054023;28;11441;-66
2023/03/05 06:56:22;;;;;;;;;0.25;0.25;;;;;4.70;77.40;101890.63;5049903;28;11460;-67
2023/03/05 06:58:50;;;;;;;;;0.75;0.00;;;;;4.70;77.07;101881.78;5048190;28;11462;-64
2023/03/05 07:01:18;;;;;;;;;0.00;0.00;;;;;4.74;76.97;101879.66;5049580;28;11439;-65
2023/03/05 07:03:49;;;;;;;;;0.50;0.00;;;;;4.74;76.78;101880.53;5051484;28;11566;-65
2023/03/05 07:06:16;;;;;;;;;0.00;0.00;;;;;4.76;76.79;101881.25;5048673;28;11447;-64
2023/03/05 07:08:46;;;;;;;;;0.00;0.00;;;;;4.79;76.78;101883.66;5047298;28;11440;-64
2023/03/05 07:11:15;;;;;;;;;0.00;0.00;;;;;4.82;76.60;101882.53;5050519;28;11428;-65
2023/03/05 07:13:49;;;;;;;;;0.00;0.00;;;;;4.84;76.82;101880.59;5044101;28;11534;-65
2023/03/05 07:16:19;;;;;;;;;0.00;0.00;;;;;4.84;76.98;101877.91;5047881;28;11482;-65
2023/03/05 07:18:45;;;;;;;;;0.00;0.00;;;;;4.85;76.79;101879.59;5048335;28;12488;-66
2023/03/05 07:21:16;;;;;;;;;0.00;0.00;;;;;4.84;76.62;101881.44;5054117;28;12199;-64
2023/03/05 07:23:42;;;;;;;;;0.75;0.75;;;;;4.86;76.82;101878.63;5048871;28;11519;-66
2023/03/05 07:26:10;;;;;;;;;2.00;0.00;;;;;4.84;77.05;101881.44;5052491;28;11500;-65
2023/03/05 07:28:36;;;;;;;;;1.00;1.00;;;;;4.81;76.85;101873.69;5048752;28;11504;-66
2023/03/05 07:31:06;;;;;;;;;2.00;1.00;;;;;4.70;76.66;101874.63;5050216;28;11655;-65
2023/03/05 07:33:34;;;;;;;;;4.75;3.00;;;;;4.69;76.88;101872.06;5047002;28;11441;-66
2023/03/05 07:36:00;;;;;;;;;2.00;1.00;;;;;4.72;77.26;101869.13;5050054;28;12309;-65
2023/03/05 07:38:27;;;;;;;;;1.00;1.00;;;;;4.81;77.00;101876.34;5048893;28;11432;-65
2023/03/05 07:40:53;;;;;;;;;7.00;6.50;;;;;4.85;77.04;101874.25;5050004;28;11433;-66
2023/03/05 07:43:20;;;;;;;;;5.00;5.00;;;;;4.89;77.20;101870.34;5046366;28;11540;-66
2023/03/05 07:45:46;;;;;;;;;4.00;4.00;;;;;4.90;76.65;101870.25;5049290;28;11455;-65
2023/03/05 07:48:16;;;;;;;;;4.50;2.00;;;;;4.97;77.05;101867.88;5055882;28;12190;-66
2023/03/05 07:50:43;;;;;;;;;4.00;4.00;;;;;4.99;76.64;101871.28;5048937;28;11597;-66
2023/03/05 07:53:09;;;;;;;;;1.00;1.00;;;;;5.04;76.26;101868.19;5048541;28;11444;-66
2023/03/05 07:55:45;;;;;;;;;1.00;1.00;;;;;5.06;76.62;101866.22;5048728;28;12184;-65
2023/03/05 07:58:13;;;;;;;;;2.50;0.25;;;;;5.06;76.54;101863.56;5049164;28;11574;-65
2023/03/05 08:00:39;;;;;;;;;0.00;0.00;;;;;5.08;76.58;101858.94;5050329;28;11463;-65
2023/03/05 08:03:06;;;;;;;;;2.00;1.00;;;;;5.09;76.31;101865.97;5047999;28;11426;-65
2023/03/05 08:05:32;;;;;;;;;1.00;1.00;;;;;5.10;76.40;101860.50;5066583;28;11432;-65
2023/03/05 08:07:59;;;;;;;;;0.75;0.75;;;;;5.10;76.62;101860.50;5054031;28;11429;-66
2023/03/05 08:10:26;;;;;;;;;0.00;0.00;;;;;5.10;76.55;101851.63;5033581;28;11425;-66
2023/03/05 08:12:52;;;;;;;;;0.75;0.75;;;;;5.13;76.33;101851.38;5054085;28;11539;-66
2023/03/05 08:15:19;;;;;;;;;0.00;0.00;;;;;5.16;76.20;101851.13;5061846;28;11445;-66
2023/03/05 08:17:45;;;;;;;;;0.00;0.00;;;;;5.18;76.23;101852.66;5065197;28;11472;-66
2023/03/05 08:20:12;;;;;;;;;0.00;0.00;;;;;5.24;76.42;101850.44;5056235;28;11445;-66
2023/03/05 08:22:38;;;;;;;;;0.75;0.00;;;;;5.24;76.10;101850.44;5056806;28;11435;-65
2023/03/05 08:25:06;;;;;;;;;1.50;0.50;;;;;5.28;76.05;101844.69;5053000;28;11411;-65
2023/03/05 08:27:36;;;;;;;;;4.00;1.00;;;;;5.31;76.08;101847.09;5058748;28;11410;-65
2023/03/05 08:30:03;;;;;;;;;1.00;1.00;;;;;5.34;76.12;101838.81;5058597;28;11439;-65
2023/03/05 08:32:29;;;;;;;;;1.00;1.00;;;;;5.37;76.30;101846.56;5053482;28;11428;-65
2023/03/05 08:35:00;;;;;;;;;1.50;1.00;;;;;5.35;76.46;101845.84;5051890;28;12157;-66
2023/03/05 08:37:26;;;;;;;;;4.00;2.00;;;;;5.35;76.20;101843.19;5052417;28;12118;-66
2023/03/05 08:39:55;;;;;;;;;1.00;1.00;;;;;5.37;75.87;101843.03;5052933;28;11540;-66
2023/03/05 08:42:22;;;;;;;;;2.00;1.00;;;;;5.44;76.32;101837.03;5051478;28;11448;-65
2023/03/05 08:44:49;;;;;;;;;1.75;1.00;;;;;5.52;75.96;101830.16;5050573;28;11497;-65
2023/03/05 08:47:16;;;;;;;;;2.00;1.00;;;;;5.55;75.93;101830.75;5051694;28;11420;-65
2023/03/05 08:49:44;;;;;;;;;2.00;2.00;;;;;5.67;76.20;101829.63;5034408;28;11428;-65
2023/03/05 08:52:10;;;;;;;;;11.50;10.00;;;;;5.74;75.73;101819.22;5052144;28;11444;-66
2023/03/05 08:54:37;;;;;;;;;20.75;16.25;;;;;5.76;75.02;101822.63;5049513;28;12152;-66
2023/03/05 08:57:04;;;;;;;;;19.50;17.50;;;;;5.76;74.84;101819.94;5053949;28;11497;-67
2023/03/05 08:59:30;;;;;;;;;12.00;9.75;;;;;5.77;75.09;101816.28;5052132;28;11571;-66
2023/03/05 09:02:01;;;;;;;;;10.25;8.00;;;;;5.79;74.45;101816.13;5046232;28;11584;-67
2023/03/05 09:04:27;;;;;;;;;3.50;3.50;;;;;5.78;74.76;101812.63;5044798;28;11430;-66
2023/03/05 09:06:56;;;;;;;;;0.00;0.00;;;;;5.74;74.75;101808.53;5052339;28;11442;-64
2023/03/05 09:09:23;;;;;;;;;1.00;1.00;;;;;5.75;74.52;101815.56;5049447;28;11418;-66
2023/03/05 09:11:50;;;;;;;;;0.00;0.00;;;;;5.77;75.27;101808.25;5051596;28;11407;-66
2023/03/05 09:14:17;;;;;;;;;2.00;2.00;;;;;5.83;74.76;101814.88;5050559;28;11419;-66
2023/03/05 09:16:43;;;;;;;;;1.00;1.00;;;;;5.89;74.47;101812.50;5052215;28;11428;-66
2023/03/05 09:19:11;;;;;;;;;1.25;1.25;;;;;5.94;75.22;101809.44;5051663;28;11088;-65
2023/03/05 09:21:38;;;;;;;;;2.50;2.00;;;;;5.99;74.71;101811.69;5052173;28;11538;-65
2023/03/05 09:24:04;;;;;;;;;1.00;1.00;;;;;6.03;74.46;101807.75;5047238;28;11419;-65
2023/03/05 09:26:31;;;;;;;;;1.25;1.25;;;;;6.06;74.71;101804.78;5051160;28;11514;-65
2023/03/05 09:28:57;;;;;;;;;0.50;0.50;;;;;6.09;74.14;101804.53;5051607;28;11461;-67
2023/03/05 09:31:24;;;;;;;;;1.00;1.00;;;;;6.12;73.55;101806.91;5051183;28;11231;-66
2023/03/05 09:33:50;;;;;;;;;0.00;0.00;;;;;6.22;73.90;101805.06;5030868;28;11437;-66
2023/03/05 09:36:23;;;;;;;;;0.00;0.00;;;;;6.36;73.25;101806.44;5053683;28;11498;-66
2023/03/05 09:38:50;;;;;;;;;4.00;1.00;;;;;6.34;72.59;101798.56;5046896;28;11296;-67
2023/03/05 09:41:28;;;;;;;;;1.00;1.00;;;;;6.37;71.93;101805.47;5051805;28;11201;-65
2023/03/05 09:44:29;;;;;;;;;1.25;1.00;;;;;6.47;71.78;101802.78;5038894;28;11162;-66
2023/03/05 09:47:45;;;;;;;;;1.75;1.75;;;;;6.45;71.08;101797.59;5048486;28;11112;-66
2023/03/05 09:50:34;;;;;;;;;0.00;0.00;;;;;6.49;71.01;101798.13;5020198;28;11156;-66
2023/03/05 09:53:14;;;;;;;;;1.00;1.00;;;;;6.53;71.13;101792.34;5021453;28;11131;-66
2023/03/05 09:55:57;;;;;;;;;0.00;0.00;;;;;6.57;69.72;101784.88;5037793;28;11160;-65
2023/03/05 09:58:36;;;;;;;;;0.00;0.00;;;;;6.60;70.44;101789.91;5058018;28;11009;-65
2023/03/05 10:01:21;;;;;;;;;0.25;0.25;;;;;6.65;70.49;101783.16;5052153;28;10882;-66
2023/03/05 10:03:56;;;;;;;;;2.00;2.00;;;;;6.62;69.38;101786.13;5049914;28;11113;-65
2023/03/05 10:06:25;;;;;;;;;0.00;0.00;;;;;6.52;68.36;101779.09;5035355;28;11470;-66
2023/03/05 10:09:14;;;;;;;;;0.25;0.00;;;;;6.42;68.61;101785.31;5042100;28;10954;-66
2023/03/05 10:11:56;;;;;;;;;0.00;0.00;;;;;6.42;68.09;101774.63;5049307;28;11152;-67
2023/03/05 10:14:29;;;;;;;;;0.00;0.00;;;;;6.42;67.68;101771.97;5050392;28;11116;-67
2023/03/05 10:17:17;;;;;;;;;0.50;0.50;;;;;6.42;68.28;101771.13;5050686;28;11104;-66
2023/03/05 10:20:03;;;;;;;;;1.00;0.00;;;;;6.36;67.89;101777.03;5047528;28;11852;-65
2023/03/05 10:22:31;;;;;;;;;0.00;0.00;;;;;6.28;67.76;101768.88;5048595;28;10956;-66
2023/03/05 10:25:43;;;;;;;;;1.25;0.00;;;;;6.23;67.00;101765.81;5049762;28;11085;-66
2023/03/05 10:28:23;;;;;;;;;0.00;0.00;;;;;6.23;67.13;101763.13;5048933;28;11121;-66
2023/03/05 10:31:25;;;;;;;;;3.25;1.75;;;;;6.22;67.26;101762.28;5047341;28;11015;-64
2023/03/05 10:34:21;;;;;;;;;0.00;0.00;;;;;6.21;66.33;101755.25;5038532;28;11403;-66
2023/03/05 10:36:56;;;;;;;;;0.00;0.00;;;;;6.26;66.08;101749.47;5049880;28;12110;-65
2023/03/05 10:39:52;;;;;;;;;0.00;0.00;;;;;6.36;66.66;101743.13;5046314;28;11148;-66
2023/03/05 10:42:43;;;;;;;;;1.00;1.00;;;;;6.37;65.81;101744.81;5046960;28;11135;-65
2023/03/05 10:45:21;;;;;;;;;1.00;0.00;;;;;6.41;66.10;101742.69;5049207;28;11936;-65
2023/03/05 10:48:06;;;;;;;;;0.50;0.50;;;;;6.48;66.93;101740.25;5044469;28;11457;-66
2023/03/05 10:50:39;;;;;;;;;0.50;0.50;;;;;6.51;66.78;101732.78;5050269;28;11472;-65
2023/03/05 10:53:27;;;;;;;;;0.00;0.00;;;;;6.60;68.58;101731.06;5050175;28;11217;-65
2023/03/05 10:55:55;;;;;;;;;0.00;0.00;;;;;6.57;67.48;101737.56;5050050;28;11184;-64
2023/03/05 10:58:24;;;;;;;;;0.00;0.00;;;;;6.56;67.82;101716.31;5049438;28;11052;-64
2023/03/05 11:01:11;;;;;;;;;1.00;1.00;;;;;6.56;67.43;101714.50;5048272;28;10935;-65
2023/03/05 11:03:53;;;;;;;;;0.00;0.00;;;;;6.60;67.63;101698.97;5050114;28;11005;-64
2023/03/05 11:06:31;;;;;;;;;1.75;1.00;;;;;6.68;67.65;101701.75;5050252;28;10946;-66
2023/03/05 11:09:31;;;;;;;;;0.00;0.00;;;;;6.62;67.06;101702.34;5048987;28;11101;-65
2023/03/05 11:12:15;;;;;;;;;1.00;1.00;;;;;6.56;66.27;101698.44;5048887;28;11008;-66
2023/03/05 11:14:45;;;;;;;;;1.00;1.00;;;;;6.50;66.94;101701.69;5048640;28;11293;-65
2023/03/05 11:17:49;;;;;;;;;0.00;0.00;;;;;6.60;68.14;101698.97;5050036;28;11281;-66
2023/03/05 11:20:25;;;;;;;;;0.00;0.00;;;;;7.44;72.92;101691.56;5042571;28;11652;-66
2023/03/05 11:23:14;;;;;;;;;0.50;0.50;;;;;7.54;68.55;101693.34;5048717;28;11098;-66
2023/03/05 11:26:12;;;;;;;;;1.75;1.00;;;;;7.44;66.66;101682.69;5045503;28;10870;-66
2023/03/05 11:28:50;;;;;;;;;0.25;0.25;;;;;7.24;67.08;101678.47;5049732;28;10971;-65
2023/03/05 11:31:17;;;;;;;;;0.00;0.00;;;;;7.11;65.99;101673.50;5047839;28;10983;-70
2023/03/05 11:33:56;;;;;;;;;0.00;0.00;;;;;7.07;66.23;101669.44;5071177;22;10969;-68
2023/03/05 11:36:30;;;;;;;;;0.00;0.00;;;;;7.03;65.27;101666.22;5051947;28;10953;-66
2023/03/05 11:39:04;;;;;;;;;0.00;0.00;;;;;7.02;65.86;101663.69;5049054;28;10985;-67
2023/03/05 11:41:42;;;;;;;;;0.00;0.00;;;;;7.00;65.12;101658.47;5047526;28;11033;-64
2023/03/05 11:44:25;;;;;;;;;0.00;0.00;;;;;7.01;65.57;101662.00;5044216;28;10889;-65
2023/03/05 11:47:01;;;;;;;;;0.00;0.00;;;;;7.03;65.47;101654.66;5022982;28;10932;-65